sensor_id;sensor_type;location;lat;lon;timestamp;pressure;altitude;pressure_sealevel;temperature;humidity
51287;BME280;37364;46.974;18.916;2023-03-14T00:00:32;152064.63;;;6.81;100.00
51287;BME280;37364;46.974;18.916;2023-03-14T00:03:03;152076.22;;;6.86;100.00
51287;BME280;37364;46.974;18.916;2023-03-14T00:05:34;152071.06;;;6.84;100.00
51287;BME280;37364;46.974;18.916;2023-03-14T00:08:07;152071.06;;;6.84;100.00
51287;BME280;37364;46.974;18.916;2023-03-14T00:10:38;152084.00;;;6.89;100.00
51287;BME280;37364;46.974;18.916;2023-03-14T00:13:08;152063.34;;;6.81;100.00
51287;BME280;37364;46.974;18.916;2023-03-14T00:15:41;152073.66;;;6.85;100.00
51287;BME280;37364;46.974;18.916;2023-03-14T00:18:11;152085.28;;;6.89;100.00
51287;BME280;37364;46.974;18.916;2023-03-14T00:20:41;152118.84;;;7.03;100.00
51287;BME280;37364;46.974;18.916;2023-03-14T00:23:11;152114.97;;;7.01;100.00
51287;BME280;37364;46.974;18.916;2023-03-14T00:25:41;152091.75;;;6.92;100.00
51287;BME280;37364;46.974;18.916;2023-03-14T00:28:11;152104.63;;;6.97;100.00
51287;BME280;37364;46.974;18.916;2023-03-14T00:30:44;152103.38;;;6.97;100.00
51287;BME280;37364;46.974;18.916;2023-03-14T00:33:15;152114.97;;;7.01;100.00
51287;BME280;37364;46.974;18.916;2023-03-14T00:35:52;152114.97;;;7.01;100.00
51287;BME280;37364;46.974;18.916;2023-03-14T00:38:23;152124.00;;;7.05;100.00
51287;BME280;37364;46.974;18.916;2023-03-14T00:40:54;152127.91;;;7.06;100.00
51287;BME280;37364;46.974;18.916;2023-03-14T00:43:25;152113.69;;;7.01;100.00
51287;BME280;37364;46.974;18.916;2023-03-14T00:45:58;152140.84;;;7.11;100.00
51287;BME280;37364;46.974;18.916;2023-03-14T00:48:28;152127.91;;;7.06;100.00
51287;BME280;37364;46.974;18.916;2023-03-14T00:51:00;152136.94;;;7.10;100.00
51287;BME280;37364;46.974;18.916;2023-03-14T00:53:30;152142.09;;;7.12;100.00
51287;BME280;37364;46.974;18.916;2023-03-14T00:56:02;152148.56;;;7.15;100.00
51287;BME280;37364;46.974;18.916;2023-03-14T00:58:32;152149.84;;;7.15;100.00
51287;BME280;37364;46.974;18.916;2023-03-14T01:01:10;152139.50;;;7.11;100.00
51287;BME280;37364;46.974;18.916;2023-03-14T01:03:41;152142.09;;;7.12;100.00
51287;BME280;37364;46.974;18.916;2023-03-14T01:06:18;152118.84;;;7.03;100.00
51287;BME280;37364;46.974;18.916;2023-03-14T01:08:51;152136.94;;;7.10;100.00
51287;BME280;37364;46.974;18.916;2023-03-14T01:11:23;152125.28;;;7.05;100.00
51287;BME280;37364;46.974;18.916;2023-03-14T01:13:54;152111.09;;;7.00;100.00
51287;BME280;37364;46.974;18.916;2023-03-14T01:16:33;152108.53;;;6.99;100.00
51287;BME280;37364;46.974;18.916;2023-03-14T01:19:03;152099.47;;;6.95;100.00
51287;BME280;37364;46.974;18.916;2023-03-14T01:21:34;152087.88;;;6.90;100.00
51287;BME280;37364;46.974;18.916;2023-03-14T01:24:06;152085.28;;;6.89;100.00
51287;BME280;37364;46.974;18.916;2023-03-14T01:26:36;152098.19;;;6.95;100.00
51287;BME280;37364;46.974;18.916;2023-03-14T01:29:07;152078.81;;;6.87;100.00
51287;BME280;37364;46.974;18.916;2023-03-14T01:31:41;152050.41;;;6.76;100.00
51287;BME280;37364;46.974;18.916;2023-03-14T01:34:11;152055.56;;;6.78;100.00
51287;BME280;37364;46.974;18.916;2023-03-14T01:36:41;152038.81;;;6.71;100.00
51287;BME280;37364;46.974;18.916;2023-03-14T01:39:12;152022.00;;;6.64;100.00
51287;BME280;37364;46.974;18.916;2023-03-14T01:41:43;152011.66;;;6.60;100.00
51287;BME280;37364;46.974;18.916;2023-03-14T01:44:14;152006.50;;;6.58;100.00
51287;BME280;37364;46.974;18.916;2023-03-14T01:46:53;152011.66;;;6.60;100.00
51287;BME280;37364;46.974;18.916;2023-03-14T01:49:26;152038.81;;;6.71;100.00
51287;BME280;37364;46.974;18.916;2023-03-14T01:52:13;152056.84;;;6.78;100.00
51287;BME280;37364;46.974;18.916;2023-03-14T01:54:47;152054.28;;;6.77;100.00
51287;BME280;37364;46.974;18.916;2023-03-14T01:57:24;152045.25;;;6.73;100.00
51287;BME280;37364;46.974;18.916;2023-03-14T01:59:58;152059.44;;;6.79;100.00
51287;BME280;37364;46.974;18.916;2023-03-14T02:03:01;152037.53;;;6.70;100.00
51287;BME280;37364;46.974;18.916;2023-03-14T02:05:37;152047.84;;;6.75;100.00
51287;BME280;37364;46.974;18.916;2023-03-14T02:08:18;152049.13;;;6.75;100.00
51287;BME280;37364;46.974;18.916;2023-03-14T02:11:00;152060.72;;;6.80;100.00
51287;BME280;37364;46.974;18.916;2023-03-14T02:13:58;152071.06;;;6.84;100.00
51287;BME280;37364;46.974;18.916;2023-03-14T02:16:54;152085.28;;;6.89;100.00
51287;BME280;37364;46.974;18.916;2023-03-14T02:20:16;152107.25;;;6.98;100.00
51287;BME280;37364;46.974;18.916;2023-03-14T02:22:54;152133.06;;;7.08;100.00
51287;BME280;37364;46.974;18.916;2023-03-14T02:25:37;152143.38;;;7.12;100.00
51287;BME280;37364;46.974;18.916;2023-03-14T02:28:12;152131.78;;;7.08;100.00
51287;BME280;37364;46.974;18.916;2023-03-14T02:30:43;152139.50;;;7.11;100.00
51287;BME280;37364;46.974;18.916;2023-03-14T02:33:15;152143.38;;;7.12;100.00
51287;BME280;37364;46.974;18.916;2023-03-14T02:35:50;152167.94;;;7.22;100.00
51287;BME280;37364;46.974;18.916;2023-03-14T02:38:30;152160.16;;;7.19;100.00
51287;BME280;37364;46.974;18.916;2023-03-14T02:41:05;152166.66;;;7.22;100.00
51287;BME280;37364;46.974;18.916;2023-03-14T02:43:43;152166.66;;;7.22;100.00
51287;BME280;37364;46.974;18.916;2023-03-14T02:46:16;152187.31;;;7.30;100.00
51287;BME280;37364;46.974;18.916;2023-03-14T02:48:50;152220.91;;;7.43;100.00
51287;BME280;37364;46.974;18.916;2023-03-14T02:51:22;152238.94;;;7.50;100.00
51287;BME280;37364;46.974;18.916;2023-03-14T02:53:53;152238.94;;;7.50;100.00
51287;BME280;37364;46.974;18.916;2023-03-14T02:56:24;152258.34;;;7.58;100.00
51287;BME280;37364;46.974;18.916;2023-03-14T02:58:58;152276.44;;;7.65;100.00
51287;BME280;37364;46.974;18.916;2023-03-14T03:01:35;152339.75;;;7.90;100.00
51287;BME280;37364;46.974;18.916;2023-03-14T03:04:07;152366.88;;;8.01;100.00
51287;BME280;37364;46.974;18.916;2023-03-14T03:06:37;152333.31;;;7.88;100.00
51287;BME280;37364;46.974;18.916;2023-03-14T03:09:07;152341.03;;;7.91;100.00
51287;BME280;37364;46.974;18.916;2023-03-14T03:11:37;152324.25;;;7.84;100.00
51287;BME280;37364;46.974;18.916;2023-03-14T03:14:15;152368.22;;;8.02;100.00
51287;BME280;37364;46.974;18.916;2023-03-14T03:16:45;152390.16;;;8.10;100.00
51287;BME280;37364;46.974;18.916;2023-03-14T03:19:15;152368.22;;;8.02;100.00
51287;BME280;37364;46.974;18.916;2023-03-14T03:21:47;152348.81;;;7.94;100.00
51287;BME280;37364;46.974;18.916;2023-03-14T03:24:17;152320.38;;;7.83;100.00
51287;BME280;37364;46.974;18.916;2023-03-14T03:26:47;152316.50;;;7.81;100.00
51287;BME280;37364;46.974;18.916;2023-03-14T03:29:20;152320.38;;;7.83;100.00
51287;BME280;37364;46.974;18.916;2023-03-14T03:31:50;152285.50;;;7.69;100.00
51287;BME280;37364;46.974;18.916;2023-03-14T03:34:20;152254.50;;;7.57;100.00
51287;BME280;37364;46.974;18.916;2023-03-14T03:36:55;152223.47;;;7.44;100.00
51287;BME280;37364;46.974;18.916;2023-03-14T03:39:29;152175.69;;;7.25;100.00
51287;BME280;37364;46.974;18.916;2023-03-14T03:42:00;152166.66;;;7.22;100.00
51287;BME280;37364;46.974;18.916;2023-03-14T03:44:32;152157.59;;;7.18;100.00
51287;BME280;37364;46.974;18.916;2023-03-14T03:47:03;152134.34;;;7.09;100.00
51287;BME280;37364;46.974;18.916;2023-03-14T03:49:33;152107.25;;;6.98;100.00
51287;BME280;37364;46.974;18.916;2023-03-14T03:52:04;152095.59;;;6.93;100.00
51287;BME280;37364;46.974;18.916;2023-03-14T03:54:34;152091.75;;;6.92;100.00
51287;BME280;37364;46.974;18.916;2023-03-14T03:57:05;152099.47;;;6.95;100.00
51287;BME280;37364;46.974;18.916;2023-03-14T03:59:38;152176.97;;;7.26;100.00
51287;BME280;37364;46.974;18.916;2023-03-14T04:02:08;152192.47;;;7.32;100.00
51287;BME280;37364;46.974;18.916;2023-03-14T04:04:39;152158.88;;;7.19;100.00
51287;BME280;37364;46.974;18.916;2023-03-14T04:07:09;152143.38;;;7.12;100.00
51287;BME280;37364;46.974;18.916;2023-03-14T04:09:42;152125.28;;;7.05;100.00
51287;BME280;37364;46.974;18.916;2023-03-14T04:12:31;152098.19;;;6.95;100.00
51287;BME280;37364;46.974;18.916;2023-03-14T04:15:14;152099.47;;;6.95;100.00
51287;BME280;37364;46.974;18.916;2023-03-14T04:17:47;152126.63;;;7.06;100.00
51287;BME280;37364;46.974;18.916;2023-03-14T04:20:18;152176.97;;;7.26;100.00
51287;BME280;37364;46.974;18.916;2023-03-14T04:22:48;152166.66;;;7.22;100.00
51287;BME280;37364;46.974;18.916;2023-03-14T04:25:18;152164.03;;;7.21;100.00
51287;BME280;37364;46.974;18.916;2023-03-14T04:27:54;152201.53;;;7.36;100.00
51287;BME280;37364;46.974;18.916;2023-03-14T04:30:31;152179.53;;;7.27;100.00
51287;BME280;37364;46.974;18.916;2023-03-14T04:33:07;152231.22;;;7.47;100.00
51287;BME280;37364;46.974;18.916;2023-03-14T04:35:43;152205.41;;;7.37;100.00
51287;BME280;37364;46.974;18.916;2023-03-14T04:38:16;152236.41;;;7.49;100.00
51287;BME280;37364;46.974;18.916;2023-03-14T04:40:47;152248.00;;;7.54;100.00
51287;BME280;37364;46.974;18.916;2023-03-14T04:43:19;152277.72;;;7.66;100.00
51287;BME280;37364;46.974;18.916;2023-03-14T04:45:56;152282.88;;;7.68;100.00
51287;BME280;37364;46.974;18.916;2023-03-14T04:48:26;152268.66;;;7.62;100.00
51287;BME280;37364;46.974;18.916;2023-03-14T04:50:58;152255.78;;;7.57;100.00
51287;BME280;37364;46.974;18.916;2023-03-14T04:53:31;152254.50;;;7.57;100.00
51287;BME280;37364;46.974;18.916;2023-03-14T04:56:06;152284.22;;;7.68;100.00
51287;BME280;37364;46.974;18.916;2023-03-14T04:58:40;152328.09;;;7.86;100.00
51287;BME280;37364;46.974;18.916;2023-03-14T05:01:17;152346.22;;;7.93;100.00
51287;BME280;37364;46.974;18.916;2023-03-14T05:04:06;152396.59;;;8.13;99.19
51287;BME280;37364;46.974;18.916;2023-03-14T05:07:15;152463.84;;;8.40;96.68
51287;BME280;37364;46.974;18.916;2023-03-14T05:10:04;152505.22;;;8.56;95.32
51287;BME280;37364;46.974;18.916;2023-03-14T05:12:47;152441.81;;;8.31;96.97
51287;BME280;37364;46.974;18.916;2023-03-14T05:15:36;152438.00;;;8.29;97.03
51287;BME280;37364;46.974;18.916;2023-03-14T05:18:23;152425.03;;;8.24;97.40
51287;BME280;37364;46.974;18.916;2023-03-14T05:21:07;152383.69;;;8.08;98.92
51287;BME280;37364;46.974;18.916;2023-03-14T05:24:06;152355.25;;;7.97;99.54
51287;BME280;37364;46.974;18.916;2023-03-14T05:26:57;152315.22;;;7.81;100.00
51287;BME280;37364;46.974;18.916;2023-03-14T05:29:47;152280.31;;;7.67;100.00
51287;BME280;37364;46.974;18.916;2023-03-14T05:32:34;152251.88;;;7.56;100.00
51287;BME280;37364;46.974;18.916;2023-03-14T05:35:25;152238.94;;;7.50;100.00
51287;BME280;37364;46.974;18.916;2023-03-14T05:38:06;152245.44;;;7.53;100.00
51287;BME280;37364;46.974;18.916;2023-03-14T05:40:45;152232.50;;;7.48;100.00
51287;BME280;37364;46.974;18.916;2023-03-14T05:43:33;152259.66;;;7.59;100.00
51287;BME280;37364;46.974;18.916;2023-03-14T05:46:28;152302.28;;;7.76;100.00
51287;BME280;37364;46.974;18.916;2023-03-14T05:49:20;152319.09;;;7.82;100.00
51287;BME280;37364;46.974;18.916;2023-03-14T05:52:02;152353.97;;;7.96;100.00
51287;BME280;37364;46.974;18.916;2023-03-14T05:54:55;152359.16;;;7.98;100.00
51287;BME280;37364;46.974;18.916;2023-03-14T05:57:49;152365.59;;;8.01;100.00
51287;BME280;37364;46.974;18.916;2023-03-14T06:00:39;152356.53;;;7.97;100.00
51287;BME280;37364;46.974;18.916;2023-03-14T06:03:28;152360.44;;;7.99;100.00
51287;BME280;37364;46.974;18.916;2023-03-14T06:05:59;152365.59;;;8.01;100.00
51287;BME280;37364;46.974;18.916;2023-03-14T06:08:32;152375.94;;;8.05;100.00
51287;BME280;37364;46.974;18.916;2023-03-14T06:11:04;152399.22;;;8.14;100.00
51287;BME280;37364;46.974;18.916;2023-03-14T06:13:36;152417.31;;;8.21;100.00
51287;BME280;37364;46.974;18.916;2023-03-14T06:16:09;152426.31;;;8.25;100.00
51287;BME280;37364;46.974;18.916;2023-03-14T06:18:40;152435.38;;;8.28;100.00
51287;BME280;37364;46.974;18.916;2023-03-14T06:21:12;152450.88;;;8.35;100.00
51287;BME280;37364;46.974;18.916;2023-03-14T06:23:48;152484.56;;;8.48;100.00
51287;BME280;37364;46.974;18.916;2023-03-14T06:26:19;152513.00;;;8.59;100.00
51287;BME280;37364;46.974;18.916;2023-03-14T06:28:52;152537.56;;;8.69;99.99
51287;BME280;37364;46.974;18.916;2023-03-14T06:31:23;152573.75;;;8.83;99.74
51287;BME280;37364;46.974;18.916;2023-03-14T06:33:59;152620.34;;;9.02;99.05
51287;BME280;37364;46.974;18.916;2023-03-14T06:36:31;152677.22;;;9.24;98.17
51287;BME280;37364;46.974;18.916;2023-03-14T06:39:05;152708.25;;;9.37;97.79
51287;BME280;37364;46.974;18.916;2023-03-14T06:41:40;152745.81;;;9.52;96.93
51287;BME280;37364;46.974;18.916;2023-03-14T06:44:10;152787.19;;;9.68;94.71
51287;BME280;37364;46.974;18.916;2023-03-14T06:46:41;152819.56;;;9.81;94.10
51287;BME280;37364;46.974;18.916;2023-03-14T06:49:11;152857.06;;;9.96;93.53
51287;BME280;37364;46.974;18.916;2023-03-14T06:51:42;152911.41;;;10.17;92.85
51287;BME280;37364;46.974;18.916;2023-03-14T06:54:16;152949.03;;;10.32;90.71
51287;BME280;37364;46.974;18.916;2023-03-14T06:56:47;152983.97;;;10.46;89.75
51287;BME280;37364;46.974;18.916;2023-03-14T06:59:17;153047.41;;;10.71;88.88
51287;BME280;37364;46.974;18.916;2023-03-14T07:01:48;153090.16;;;10.88;87.70
51287;BME280;37364;46.974;18.916;2023-03-14T07:04:19;153161.38;;;11.16;87.09
51287;BME280;37364;46.974;18.916;2023-03-14T07:06:50;153205.44;;;11.34;85.84
51287;BME280;37364;46.974;18.916;2023-03-14T07:09:23;153245.59;;;11.50;85.24
51287;BME280;37364;46.974;18.916;2023-03-14T07:11:58;153301.28;;;11.72;82.57
51287;BME280;37364;46.974;18.916;2023-03-14T07:14:30;153336.28;;;11.85;82.74
51287;BME280;37364;46.974;18.916;2023-03-14T07:17:00;153385.56;;;12.05;80.74
51287;BME280;37364;46.974;18.916;2023-03-14T07:19:31;153425.75;;;12.21;80.04
51287;BME280;37364;46.974;18.916;2023-03-14T07:22:01;153487.97;;;12.45;79.09
51287;BME280;37364;46.974;18.916;2023-03-14T07:24:34;153519.09;;;12.58;78.37
51287;BME280;37364;46.974;18.916;2023-03-14T07:27:04;153587.81;;;12.85;76.18
51287;BME280;37364;46.974;18.916;2023-03-14T07:29:37;153608.56;;;12.93;74.87
51287;BME280;37364;46.974;18.916;2023-03-14T07:32:08;153589.09;;;12.85;74.44
51287;BME280;37364;46.974;18.916;2023-03-14T07:34:42;153598.19;;;12.89;74.38
51287;BME280;37364;46.974;18.916;2023-03-14T07:37:13;153598.19;;;12.89;73.36
51287;BME280;37364;46.974;18.916;2023-03-14T07:39:48;153634.53;;;13.03;75.35
51287;BME280;37364;46.974;18.916;2023-03-14T07:42:24;153672.13;;;13.18;74.68
51287;BME280;37364;46.974;18.916;2023-03-14T07:45:08;153705.91;;;13.32;73.49
51287;BME280;37364;46.974;18.916;2023-03-14T07:47:40;153769.47;;;13.57;73.58
51287;BME280;37364;46.974;18.916;2023-03-14T07:50:10;153751.28;;;13.50;72.79
51287;BME280;37364;46.974;18.916;2023-03-14T07:52:42;153777.22;;;13.60;71.93
51287;BME280;37364;46.974;18.916;2023-03-14T07:55:15;153772.03;;;13.58;72.35
51287;BME280;37364;46.974;18.916;2023-03-14T07:57:45;153803.22;;;13.70;71.02
51287;BME280;37364;46.974;18.916;2023-03-14T08:00:16;153816.16;;;13.75;72.86
51287;BME280;37364;46.974;18.916;2023-03-14T08:02:46;153805.78;;;13.71;72.18
51287;BME280;37364;46.974;18.916;2023-03-14T08:05:17;153868.09;;;13.96;71.55
51287;BME280;37364;46.974;18.916;2023-03-14T08:07:47;153851.19;;;13.89;71.50
51287;BME280;37364;46.974;18.916;2023-03-14T08:10:20;153875.84;;;13.99;71.63
51287;BME280;37364;46.974;18.916;2023-03-14T08:12:58;153861.56;;;13.93;71.68
51287;BME280;37364;46.974;18.916;2023-03-14T08:15:30;153843.44;;;13.86;70.57
51287;BME280;37364;46.974;18.916;2023-03-14T08:18:01;153882.38;;;14.01;71.90
51287;BME280;37364;46.974;18.916;2023-03-14T08:20:31;153886.22;;;14.03;70.50
51287;BME280;37364;46.974;18.916;2023-03-14T08:23:03;153892.75;;;14.06;70.84
51287;BME280;37364;46.974;18.916;2023-03-14T08:25:38;153925.19;;;14.18;71.25
51287;BME280;37364;46.974;18.916;2023-03-14T08:28:09;153974.50;;;14.38;71.92
51287;BME280;37364;46.974;18.916;2023-03-14T08:30:39;154003.06;;;14.49;71.50
51287;BME280;37364;46.974;18.916;2023-03-14T08:33:13;154014.75;;;14.54;71.57
51287;BME280;37364;46.974;18.916;2023-03-14T08:35:43;154018.66;;;14.55;71.74
51287;BME280;37364;46.974;18.916;2023-03-14T08:38:14;154039.47;;;14.63;71.10
51287;BME280;37364;46.974;18.916;2023-03-14T08:40:47;154099.19;;;14.87;71.07
51287;BME280;37364;46.974;18.916;2023-03-14T08:43:17;154135.59;;;15.01;69.70
51287;BME280;37364;46.974;18.916;2023-03-14T08:45:47;154164.13;;;15.13;71.24
51287;BME280;37364;46.974;18.916;2023-03-14T08:48:17;154208.28;;;15.30;70.39
51287;BME280;37364;46.974;18.916;2023-03-14T08:50:48;154239.44;;;15.42;69.28
51287;BME280;37364;46.974;18.916;2023-03-14T08:53:18;154244.69;;;15.45;69.89
51287;BME280;37364;46.974;18.916;2023-03-14T08:55:54;154336.94;;;15.81;72.22
51287;BME280;37364;46.974;18.916;2023-03-14T08:58:25;154382.44;;;15.99;68.57
51287;BME280;37364;46.974;18.916;2023-03-14T09:00:56;154386.34;;;16.00;68.42
51287;BME280;37364;46.974;18.916;2023-03-14T09:03:26;154446.13;;;16.24;69.24
51287;BME280;37364;46.974;18.916;2023-03-14T09:06:02;154470.81;;;16.34;69.06
51287;BME280;37364;46.974;18.916;2023-03-14T09:08:35;154533.22;;;16.58;67.27
51287;BME280;37364;46.974;18.916;2023-03-14T09:11:09;154595.66;;;16.83;67.65
51287;BME280;37364;46.974;18.916;2023-03-14T09:13:40;154629.47;;;16.96;66.50
51287;BME280;37364;46.974;18.916;2023-03-14T09:16:10;154642.50;;;17.02;64.64
51287;BME280;37364;46.974;18.916;2023-03-14T09:18:41;154689.28;;;17.20;64.77
51287;BME280;37364;46.974;18.916;2023-03-14T09:21:11;154727.03;;;17.35;64.42
51287;BME280;37364;46.974;18.916;2023-03-14T09:23:42;154769.91;;;17.52;62.75
51287;BME280;37364;46.974;18.916;2023-03-14T09:26:15;154730.88;;;17.36;60.04
51287;BME280;37364;46.974;18.916;2023-03-14T09:28:45;154759.53;;;17.48;61.69
51287;BME280;37364;46.974;18.916;2023-03-14T09:31:16;154773.84;;;17.53;61.29
51287;BME280;37364;46.974;18.916;2023-03-14T09:33:46;154759.53;;;17.48;61.30
51287;BME280;37364;46.974;18.916;2023-03-14T09:36:18;154779.03;;;17.55;60.05
51287;BME280;37364;46.974;18.916;2023-03-14T09:38:48;154838.88;;;17.79;59.16
51287;BME280;37364;46.974;18.916;2023-03-14T09:41:23;154789.44;;;17.59;59.94
51287;BME280;37364;46.974;18.916;2023-03-14T09:44:01;154910.50;;;18.07;60.35
51287;BME280;37364;46.974;18.916;2023-03-14T09:46:36;154962.53;;;18.28;60.27
51287;BME280;37364;46.974;18.916;2023-03-14T09:49:13;154978.16;;;18.34;58.94
51287;BME280;37364;46.974;18.916;2023-03-14T09:51:47;155040.66;;;18.58;58.47
51287;BME280;37364;46.974;18.916;2023-03-14T09:54:30;155066.66;;;18.69;58.76
51287;BME280;37364;46.974;18.916;2023-03-14T09:57:08;155017.22;;;18.49;58.94
51287;BME280;37364;46.974;18.916;2023-03-14T09:59:42;155032.81;;;18.55;56.25
51287;BME280;37364;46.974;18.916;2023-03-14T10:02:17;155065.38;;;18.68;59.08
51287;BME280;37364;46.974;18.916;2023-03-14T10:04:49;155087.50;;;18.77;55.91
51287;BME280;37364;46.974;18.916;2023-03-14T10:07:25;155163.03;;;19.07;49.09
51287;BME280;37364;46.974;18.916;2023-03-14T10:09:58;155193.00;;;19.19;49.89
51287;BME280;37364;46.974;18.916;2023-03-14T10:12:37;155243.81;;;19.39;48.69
51287;BME280;37364;46.974;18.916;2023-03-14T10:15:11;155289.41;;;19.56;47.43
51287;BME280;37364;46.974;18.916;2023-03-14T10:17:48;155346.72;;;19.79;47.07
51287;BME280;37364;46.974;18.916;2023-03-14T10:20:31;155290.69;;;19.57;47.31
51287;BME280;37364;46.974;18.916;2023-03-14T10:23:18;155289.41;;;19.56;45.64
51287;BME280;37364;46.974;18.916;2023-03-14T10:26:00;155362.34;;;19.85;45.93
51287;BME280;37364;46.974;18.916;2023-03-14T10:28:37;155364.97;;;19.86;44.74
51287;BME280;37364;46.974;18.916;2023-03-14T10:31:08;155371.47;;;19.89;45.62
51287;BME280;37364;46.974;18.916;2023-03-14T10:33:39;155335.03;;;19.74;44.46
51287;BME280;37364;46.974;18.916;2023-03-14T10:36:18;155364.97;;;19.86;46.37
51287;BME280;37364;46.974;18.916;2023-03-14T10:38:50;155323.28;;;19.70;44.65
51287;BME280;37364;46.974;18.916;2023-03-14T10:41:36;155381.91;;;19.93;44.89
51287;BME280;37364;46.974;18.916;2023-03-14T10:44:12;155448.38;;;20.19;43.48
51287;BME280;37364;46.974;18.916;2023-03-14T10:46:42;155512.19;;;20.44;43.38
51287;BME280;37364;46.974;18.916;2023-03-14T10:49:28;155506.97;;;20.42;43.11
51287;BME280;37364;46.974;18.916;2023-03-14T10:52:15;155535.66;;;20.53;44.08
51287;BME280;37364;46.974;18.916;2023-03-14T10:54:58;155580.03;;;20.71;42.90
51287;BME280;37364;46.974;18.916;2023-03-14T10:57:29;155639.97;;;20.94;43.54
51287;BME280;37364;46.974;18.916;2023-03-14T11:00:03;155611.28;;;20.83;41.87
51287;BME280;37364;46.974;18.916;2023-03-14T11:02:47;155544.78;;;20.57;41.69
51287;BME280;37364;46.974;18.916;2023-03-14T11:05:27;155621.72;;;20.87;42.47
51287;BME280;37364;46.974;18.916;2023-03-14T11:08:02;155638.69;;;20.94;42.31
51287;BME280;37364;46.974;18.916;2023-03-14T11:10:39;155560.47;;;20.63;42.43
51287;BME280;37364;46.974;18.916;2023-03-14T11:13:15;155581.31;;;20.71;41.08
51287;BME280;37364;46.974;18.916;2023-03-14T11:15:58;155602.22;;;20.80;41.38
51287;BME280;37364;46.974;18.916;2023-03-14T11:18:48;155591.75;;;20.76;41.22
51287;BME280;37364;46.974;18.916;2023-03-14T11:21:26;155611.28;;;20.83;40.69
51287;BME280;37364;46.974;18.916;2023-03-14T11:24:09;155692.16;;;21.15;42.01
51287;BME280;37364;46.974;18.916;2023-03-14T11:26:50;155705.16;;;21.20;40.13
51287;BME280;37364;46.974;18.916;2023-03-14T11:29:29;155603.50;;;20.80;39.27
51287;BME280;37364;46.974;18.916;2023-03-14T11:32:13;155548.72;;;20.59;41.35
51287;BME280;37364;46.974;18.916;2023-03-14T11:34:50;155629.56;;;20.90;41.58
51287;BME280;37364;46.974;18.916;2023-03-14T11:37:25;155595.66;;;20.77;40.03
51287;BME280;37364;46.974;18.916;2023-03-14T11:40:00;155454.88;;;20.22;40.10
51287;BME280;37364;46.974;18.916;2023-03-14T11:42:33;155625.63;;;20.89;40.26
51287;BME280;37364;46.974;18.916;2023-03-14T11:45:14;155651.69;;;20.99;40.73
51287;BME280;37364;46.974;18.916;2023-03-14T11:48:20;155625.63;;;20.89;39.91
51287;BME280;37364;46.974;18.916;2023-03-14T11:50:57;155527.88;;;20.50;40.34
51287;BME280;37364;46.974;18.916;2023-03-14T11:53:39;155474.44;;;20.29;40.42
51287;BME280;37364;46.974;18.916;2023-03-14T11:56:36;155355.88;;;19.83;40.22
51287;BME280;37364;46.974;18.916;2023-03-14T11:59:14;155251.59;;;19.42;40.49
51287;BME280;37364;46.974;18.916;2023-03-14T12:01:54;155316.72;;;19.67;40.62
51287;BME280;37364;46.974;18.916;2023-03-14T12:04:50;155466.59;;;20.26;39.46
51287;BME280;37364;46.974;18.916;2023-03-14T12:07:27;155349.38;;;19.80;40.50
51287;BME280;37364;46.974;18.916;2023-03-14T12:10:03;155323.28;;;19.70;40.07
51287;BME280;37364;46.974;18.916;2023-03-14T12:12:34;155290.69;;;19.57;40.17
51287;BME280;37364;46.974;18.916;2023-03-14T12:15:21;155260.72;;;19.45;41.46
51287;BME280;37364;46.974;18.916;2023-03-14T12:17:54;155254.22;;;19.43;41.41
51287;BME280;37364;46.974;18.916;2023-03-14T12:20:30;155228.16;;;19.32;40.63
51287;BME280;37364;46.974;18.916;2023-03-14T12:23:05;155237.28;;;19.36;40.55
51287;BME280;37364;46.974;18.916;2023-03-14T12:26:06;155256.81;;;19.44;40.38
51287;BME280;37364;46.974;18.916;2023-03-14T12:28:42;155276.34;;;19.51;43.41
51287;BME280;37364;46.974;18.916;2023-03-14T12:31:41;155243.81;;;19.39;45.37
51287;BME280;37364;46.974;18.916;2023-03-14T12:34:28;155204.75;;;19.23;48.20
51287;BME280;37364;46.974;18.916;2023-03-14T12:40:29;155204.75;;;19.23;49.19
51287;BME280;37364;46.974;18.916;2023-03-14T12:43:24;155203.41;;;19.23;48.51
51287;BME280;37364;46.974;18.916;2023-03-14T12:46:20;155243.81;;;19.39;49.57
51287;BME280;37364;46.974;18.916;2023-03-14T12:49:05;155251.59;;;19.42;48.07
51287;BME280;37364;46.974;18.916;2023-03-14T12:51:41;155314.16;;;19.66;48.71
51287;BME280;37364;46.974;18.916;2023-03-14T12:54:34;155353.28;;;19.82;48.68
51287;BME280;37364;46.974;18.916;2023-03-14T12:57:26;155355.88;;;19.83;48.82
51287;BME280;37364;46.974;18.916;2023-03-14T13:00:19;155436.63;;;20.14;47.59
51287;BME280;37364;46.974;18.916;2023-03-14T13:03:12;155410.56;;;20.04;48.24
51287;BME280;37364;46.974;18.916;2023-03-14T13:05:55;155301.09;;;19.61;47.54
51287;BME280;37364;46.974;18.916;2023-03-14T13:08:44;155276.34;;;19.51;46.71
51287;BME280;37364;46.974;18.916;2023-03-14T13:11:22;155255.53;;;19.43;48.49
51287;BME280;37364;46.974;18.916;2023-03-14T13:13:59;155222.94;;;19.30;48.01
51287;BME280;37364;46.974;18.916;2023-03-14T13:16:45;155208.63;;;19.25;47.42
51287;BME280;37364;46.974;18.916;2023-03-14T13:19:21;155225.56;;;19.31;49.13
51287;BME280;37364;46.974;18.916;2023-03-14T13:22:16;155226.88;;;19.32;49.03
51287;BME280;37364;46.974;18.916;2023-03-14T13:25:10;155224.28;;;19.31;47.76
51287;BME280;37364;46.974;18.916;2023-03-14T13:28:01;155181.28;;;19.14;48.22
51287;BME280;37364;46.974;18.916;2023-03-14T13:30:43;155134.44;;;18.95;47.34